createdAt,value
2018-09-25T00:01:22.813Z,99.90
2018-09-25T00:06:32.323Z,99.90
2018-09-25T00:11:41.879Z,99.90
2018-09-25T00:16:51.360Z,99.90
2018-09-25T00:22:00.993Z,99.90
2018-09-25T00:27:10.439Z,99.90
2018-09-25T00:32:19.856Z,99.90
2018-09-25T00:37:29.313Z,99.90
2018-09-25T00:42:38.694Z,99.90
2018-09-25T00:47:48.189Z,99.90
2018-09-25T00:52:57.535Z,99.90
2018-09-25T00:58:07.017Z,99.90
2018-09-25T01:03:16.456Z,99.90
2018-09-25T01:08:26.007Z,99.90
2018-09-25T01:13:35.719Z,99.90
2018-09-25T01:18:45.184Z,99.90
2018-09-25T01:23:54.560Z,99.90
2018-09-25T01:29:03.976Z,99.90
2018-09-25T01:34:13.584Z,99.90
2018-09-25T01:39:22.944Z,99.90
2018-09-25T01:44:32.579Z,99.90
2018-09-25T01:49:42.035Z,99.90
2018-09-25T01:54:51.475Z,99.90
2018-09-25T02:00:01.033Z,99.90
2018-09-25T02:05:10.514Z,99.90
2018-09-25T02:10:20.032Z,99.90
2018-09-25T02:15:29.613Z,99.90
2018-09-25T02:20:39.239Z,99.90
2018-09-25T02:25:48.788Z,99.90
2018-09-25T02:30:58.240Z,99.90
2018-09-25T02:36:07.622Z,99.90
2018-09-25T02:41:17.046Z,99.90
2018-09-25T02:46:26.462Z,99.90
2018-09-25T02:51:35.877Z,99.90
2018-09-25T02:56:45.404Z,99.90
2018-09-25T03:01:54.958Z,99.90
2018-09-25T03:07:04.450Z,99.90
2018-09-25T03:12:14.116Z,99.90
2018-09-25T03:17:23.742Z,99.90
2018-09-25T03:22:33.291Z,99.90
2018-09-25T03:27:42.703Z,99.90
2018-09-25T03:32:52.237Z,99.90
2018-09-25T03:38:01.675Z,99.90
2018-09-25T03:43:11.140Z,99.90
2018-09-25T03:48:21.128Z,99.90
2018-09-25T03:53:30.526Z,99.90
2018-09-25T03:58:40.139Z,99.90
2018-09-25T04:03:49.631Z,99.90
2018-09-25T04:08:59.249Z,99.90
2018-09-25T04:14:08.668Z,99.90
2018-09-25T04:19:17.983Z,99.90
2018-09-25T04:24:27.632Z,99.90
2018-09-25T04:29:37.124Z,99.90
2018-09-25T04:34:46.611Z,99.90
2018-09-25T04:39:56.171Z,99.90
2018-09-25T04:45:05.769Z,99.90
2018-09-25T04:50:15.321Z,99.90
2018-09-25T04:55:24.891Z,99.90
2018-09-25T05:00:34.395Z,99.90
2018-09-25T05:05:43.872Z,99.90
2018-09-25T05:10:53.165Z,99.90
2018-09-25T05:16:02.591Z,99.90
2018-09-25T05:21:12.156Z,99.90
2018-09-25T05:26:21.488Z,99.90
2018-09-25T05:31:30.880Z,99.90
2018-09-25T05:36:40.465Z,99.90
2018-09-25T05:41:49.804Z,99.90
2018-09-25T05:46:59.234Z,99.90
2018-09-25T05:52:08.550Z,99.90
2018-09-25T05:57:17.969Z,99.90
2018-09-25T06:02:27.277Z,99.90
2018-09-25T06:07:36.572Z,99.90
2018-09-25T06:12:45.914Z,99.90
2018-09-25T06:17:55.332Z,99.90
2018-09-25T06:23:04.651Z,99.90
2018-09-25T06:28:14.017Z,99.90
2018-09-25T06:33:23.603Z,99.90
2018-09-25T06:38:33.052Z,99.90
2018-09-25T06:43:42.483Z,99.90
2018-09-25T06:48:51.789Z,99.90
2018-09-25T06:54:01.241Z,99.90
2018-09-25T06:59:10.617Z,99.90
2018-09-25T07:04:20.172Z,99.90
2018-09-25T07:09:29.444Z,99.90
2018-09-25T07:14:38.984Z,99.90
2018-09-25T07:19:48.416Z,99.90
2018-09-25T07:24:57.717Z,99.90
2018-09-25T07:30:07.296Z,99.90
2018-09-25T07:35:16.491Z,99.90
2018-09-25T07:40:26.226Z,99.90
2018-09-25T07:45:35.462Z,99.90
2018-09-25T07:50:45.129Z,99.90
2018-09-25T07:55:54.383Z,99.90
2018-09-25T08:01:03.923Z,99.90
2018-09-25T08:06:13.744Z,99.90
2018-09-25T08:11:23.411Z,99.90
2018-09-25T08:16:32.728Z,99.90
2018-09-25T08:21:42.146Z,99.90
2018-09-25T08:26:51.505Z,99.90
2018-09-25T08:32:01.266Z,99.90
2018-09-25T08:37:10.784Z,99.90
2018-09-25T08:42:21.132Z,99.90
2018-09-25T08:47:30.511Z,99.90
2018-09-25T08:52:39.917Z,99.90
2018-09-25T08:57:49.274Z,99.90
2018-09-25T09:02:58.643Z,99.90
2018-09-25T09:08:07.922Z,99.90
2018-09-25T09:13:17.240Z,99.90
2018-09-25T09:18:26.605Z,99.90
2018-09-25T09:23:36.052Z,99.90
2018-09-25T09:28:45.581Z,99.90
2018-09-25T09:33:54.974Z,99.90
2018-09-25T09:39:04.319Z,99.90
2018-09-25T09:44:13.703Z,99.90
2018-09-25T09:49:23.036Z,99.90
2018-09-25T09:54:32.368Z,99.90
2018-09-25T09:59:41.692Z,99.90
2018-09-25T10:04:50.927Z,99.90
2018-09-25T10:10:00.327Z,99.90
2018-09-25T10:15:09.839Z,99.90
2018-09-25T10:20:19.179Z,99.60
2018-09-25T10:25:28.620Z,99.90
2018-09-25T10:30:37.965Z,99.90
2018-09-25T10:35:47.320Z,99.90
2018-09-25T10:40:56.839Z,99.90
2018-09-25T10:46:06.160Z,99.90
2018-09-25T10:51:15.626Z,99.90
2018-09-25T10:56:24.884Z,99.90
2018-09-25T11:01:34.330Z,99.90
2018-09-25T11:06:43.644Z,99.90
2018-09-25T11:11:53.115Z,95.10
2018-09-25T11:17:02.384Z,99.90
2018-09-25T11:22:11.685Z,94.30
2018-09-25T11:27:21.128Z,99.90
2018-09-25T11:32:30.344Z,98.40
2018-09-25T11:37:39.779Z,93.10
2018-09-25T11:42:49.063Z,93.90
2018-09-25T11:47:58.464Z,93.90
2018-09-25T11:53:07.744Z,96.30
2018-09-25T11:58:17.139Z,92.50
2018-09-25T12:03:26.488Z,83.50
2018-09-25T12:08:35.976Z,90.50
2018-09-25T12:13:45.276Z,80.10
2018-09-25T12:18:54.433Z,89.10
2018-09-25T12:24:03.854Z,90.10
2018-09-25T12:29:13.172Z,88.50
2018-09-25T12:34:22.629Z,91.20
2018-09-25T12:39:31.991Z,93.90
2018-09-25T12:44:41.360Z,94.60
2018-09-25T12:49:50.685Z,96.70
2018-09-25T12:55:00.172Z,94.30
2018-09-25T13:00:09.792Z,91.40
2018-09-25T13:05:19.304Z,91.10
2018-09-25T13:10:28.635Z,83.40
2018-09-25T13:15:37.976Z,90.20
2018-09-25T13:20:47.396Z,88.50
2018-09-25T13:25:56.783Z,92.30
2018-09-25T13:31:06.229Z,94.10
2018-09-25T13:36:15.540Z,92.30
2018-09-25T13:41:25.112Z,90.60
2018-09-25T13:46:34.460Z,91.00
2018-09-25T13:51:43.735Z,91.30
2018-09-25T13:56:53.195Z,92.10
2018-09-25T14:02:02.658Z,90.90
2018-09-25T14:07:12.129Z,89.40
2018-09-25T14:12:21.513Z,84.70
2018-09-25T14:17:30.961Z,86.30
2018-09-25T14:22:40.415Z,84.80
2018-09-25T14:27:49.875Z,82.20
2018-09-25T14:32:59.216Z,89.10
2018-09-25T14:38:08.704Z,88.90
2018-09-25T14:43:17.956Z,92.60
2018-09-25T14:48:27.434Z,92.00
2018-09-25T14:53:36.717Z,94.00
2018-09-25T14:58:46.251Z,93.10
2018-09-25T15:03:55.689Z,92.70
2018-09-25T15:09:05.033Z,96.10
2018-09-25T15:14:14.211Z,94.40
2018-09-25T15:19:24.028Z,93.50
2018-09-25T15:24:33.453Z,92.50
2018-09-25T15:29:42.930Z,94.00
2018-09-25T15:34:52.384Z,94.20
2018-09-25T15:40:01.723Z,94.70
2018-09-25T15:45:11.156Z,92.30
2018-09-25T15:50:20.593Z,94.00
2018-09-25T15:55:30.102Z,96.00
2018-09-25T16:00:39.765Z,94.50
2018-09-25T16:05:49.247Z,97.60
2018-09-25T16:10:58.744Z,96.50
2018-09-25T16:16:08.317Z,99.10
2018-09-25T16:21:17.792Z,97.00
2018-09-25T16:26:27.207Z,99.30
2018-09-25T16:31:36.660Z,97.90
2018-09-25T16:36:46.231Z,99.90
2018-09-25T16:41:55.772Z,99.90
2018-09-25T16:47:05.278Z,99.70
2018-09-25T16:52:14.665Z,97.70
2018-09-25T16:57:23.922Z,99.90
2018-09-25T17:02:33.377Z,98.90
2018-09-25T17:07:42.779Z,99.90
2018-09-25T17:12:52.491Z,99.90
2018-09-25T17:18:01.920Z,99.90
2018-09-25T17:23:11.402Z,99.90
2018-09-25T17:28:20.760Z,99.90
2018-09-25T17:33:30.323Z,99.90
2018-09-25T17:38:39.900Z,99.90
2018-09-25T17:43:49.513Z,99.90
2018-09-25T17:48:58.926Z,99.90
2018-09-25T17:54:08.401Z,99.90
2018-09-25T17:59:18.135Z,99.90
2018-09-25T18:04:27.643Z,99.90
2018-09-25T18:09:37.406Z,99.90
2018-09-25T18:14:47.005Z,99.90
2018-09-25T18:19:56.458Z,99.90
2018-09-25T18:25:05.889Z,99.90
2018-09-25T18:30:15.468Z,99.90
2018-09-25T18:35:25.028Z,99.90
2018-09-25T18:40:34.553Z,99.90
2018-09-25T18:45:44.189Z,99.90
2018-09-25T18:50:53.827Z,99.90
2018-09-25T18:56:03.497Z,99.90
2018-09-25T19:01:13.151Z,99.90
2018-09-25T19:06:22.811Z,99.90
2018-09-25T19:11:32.441Z,99.90
2018-09-25T19:16:41.980Z,99.90
2018-09-25T19:21:51.643Z,99.90
2018-09-25T19:27:01.168Z,99.90
2018-09-25T19:32:10.456Z,99.90
2018-09-25T19:37:20.465Z,99.90
2018-09-25T19:42:41.227Z,99.90
2018-09-25T19:47:50.898Z,99.90
2018-09-25T19:53:00.340Z,99.90
2018-09-25T19:58:09.835Z,99.90
2018-09-25T20:03:19.332Z,99.90
2018-09-25T20:08:28.783Z,99.90
2018-09-25T20:13:38.314Z,99.90
2018-09-25T20:18:47.990Z,99.90
2018-09-25T20:23:57.563Z,99.90
2018-09-25T20:29:06.923Z,99.90
2018-09-25T20:34:16.514Z,99.90
2018-09-25T20:39:25.873Z,99.90
2018-09-25T20:44:35.250Z,99.90
2018-09-25T20:49:44.595Z,99.90
2018-09-25T20:54:54.179Z,99.90
2018-09-25T21:00:03.529Z,99.90
2018-09-25T21:05:13.023Z,99.90
2018-09-25T21:10:22.328Z,99.90
2018-09-25T21:15:31.763Z,99.90
2018-09-25T21:20:41.064Z,99.90
2018-09-25T21:25:50.464Z,99.90
2018-09-25T21:30:59.916Z,99.90
2018-09-25T21:36:09.376Z,99.90
2018-09-25T21:41:18.619Z,99.90
2018-09-25T21:46:28.051Z,99.90
2018-09-25T21:51:37.775Z,99.90
2018-09-25T21:56:46.947Z,99.90
2018-09-25T22:01:56.262Z,99.90
2018-09-25T22:07:05.597Z,99.90
2018-09-25T22:12:15.031Z,99.90
2018-09-25T22:17:24.203Z,99.90
2018-09-25T22:22:33.518Z,99.90
2018-09-25T22:27:42.961Z,99.90
2018-09-25T22:32:52.401Z,99.90
2018-09-25T22:38:01.747Z,99.90
2018-09-25T22:43:11.272Z,99.90
2018-09-25T22:48:27.552Z,99.90
2018-09-25T22:58:46.278Z,99.90
2018-09-25T23:03:55.633Z,99.90
2018-09-25T23:09:05.072Z,99.90
2018-09-25T23:14:14.309Z,99.90
2018-09-25T23:19:23.748Z,99.90
2018-09-25T23:24:33.124Z,99.90
2018-09-25T23:29:42.579Z,99.90
2018-09-25T23:34:52.133Z,99.90
2018-09-25T23:40:00.558Z,99.90
2018-09-25T23:45:21.895Z,99.90
2018-09-25T23:50:33.732Z,99.90
2018-09-25T23:55:48.818Z,99.90
